Time;durP1;ratioP1;P1;durP2;ratioP2;P2;SDS_P1;SDS_P2;PMS_P1;PMS_P2;Temp;Humidity;BMP_temperature;BMP_pressure;BME280_temperature;BME280_humidity;BME280_pressure;Samples;Min_cycle;Max_cycle;Signal;HPM_P1;HPM_P2
2023/06/05 00:00:30;;;;;;;1.30;1.30;;;;;;;14.10;63.69;102120.81;5072864;28;20134;-89
2023/06/05 00:02:55;;;;;;;2.47;1.87;;;;;;;14.12;67.39;102133.00;5073379;28;20028;-88
2023/06/05 00:05:33;;;;;;;2.93;2.10;;;;;;;13.98;67.21;102125.25;5073199;28;20031;-88
2023/06/05 00:07:58;;;;;;;3.28;2.40;;;;;;;13.84;66.01;102121.94;5073531;28;20025;-88
2023/06/05 00:10:24;;;;;;;3.77;2.00;;;;;;;13.82;65.43;102128.91;5073451;28;20032;-88
2023/06/05 00:12:49;;;;;;;4.07;2.33;;;;;;;13.67;70.42;102127.28;5073099;28;20802;-89
2023/06/05 00:15:15;;;;;;;3.70;2.50;;;;;;;13.70;67.35;102135.06;5073471;28;20039;-88
2023/06/05 00:17:41;;;;;;;2.10;1.90;;;;;;;13.66;67.91;102139.44;5073177;28;20024;-88
2023/06/05 00:20:13;;;;;;;2.53;2.10;;;;;;;13.63;70.15;102149.88;5073152;28;20039;-88
2023/06/05 00:22:39;;;;;;;3.28;2.30;;;;;;;13.52;67.75;102139.56;5073290;28;20170;-90
2023/06/05 00:25:06;;;;;;;2.60;2.40;;;;;;;13.47;68.87;102145.69;5073880;28;20060;-90
2023/06/05 00:27:31;;;;;;;4.75;2.50;;;;;;;13.43;69.55;102144.84;5073357;28;20016;-90
2023/06/05 00:29:56;;;;;;;3.00;2.37;;;;;;;13.34;71.76;102137.91;5072675;28;20048;-89
2023/06/05 00:32:21;;;;;;;5.97;3.10;;;;;;;13.23;72.83;102137.09;5073516;28;20104;-88
2023/06/05 00:34:49;;;;;;;3.93;2.83;;;;;;;13.13;70.79;102131.94;5074948;28;20043;-88
2023/06/05 00:37:15;;;;;;;2.97;2.30;;;;;;;13.18;70.31;102136.22;5077177;28;20035;-88
2023/06/05 00:39:41;;;;;;;2.67;2.23;;;;;;;13.16;71.20;102136.25;5076921;28;20028;-88
2023/06/05 00:42:07;;;;;;;4.43;2.70;;;;;;;13.04;70.33;102131.09;5077182;28;20421;-88
2023/06/05 00:44:32;;;;;;;3.08;2.20;;;;;;;13.06;69.78;102138.03;5076830;28;20028;-88
2023/06/05 00:46:59;;;;;;;2.33;2.13;;;;;;;13.06;69.80;102137.19;5077191;28;20108;-88
2023/06/05 00:49:25;;;;;;;1.92;1.80;;;;;;;13.06;70.76;102132.81;5076489;28;20029;-88
2023/06/05 00:51:50;;;;;;;2.10;2.00;;;;;;;13.03;70.75;102130.25;5076930;28;20033;-88
2023/06/05 00:54:34;;;;;;;2.77;2.20;;;;;;;12.92;72.25;102125.06;5077314;28;20025;-89
2023/06/05 00:57:00;;;;;;;5.35;2.75;;;;;;;12.91;72.30;102138.13;5077357;28;20036;-88
2023/06/05 00:59:26;;;;;;;3.10;2.30;;;;;;;12.80;71.08;102120.78;5077094;28;20020;-88
2023/06/05 01:01:53;;;;;;;3.30;2.28;;;;;;;12.84;73.31;102134.66;5076264;28;20020;-87
2023/06/05 01:04:44;;;;;;;;;;;;;;;12.80;72.82;102130.34;5071164;28;20033;-88
2023/06/05 01:07:10;;;;;;;5.38;2.60;;;;;;;12.64;72.19;102117.38;5077069;28;19912;-88
2023/06/05 01:09:38;;;;;;;2.45;2.22;;;;;;;12.63;72.26;102123.47;5076285;28;20027;-89
2023/06/05 01:12:20;;;;;;;2.65;2.20;;;;;;;12.61;74.20;102122.59;5058543;28;20035;-89
2023/06/05 01:15:01;;;;;;;2.42;2.20;;;;;;;12.62;73.99;102121.72;5076243;28;20025;-88
2023/06/05 01:17:28;;;;;;;2.60;2.40;;;;;;;12.52;72.37;102110.47;5076608;28;20021;-88
2023/06/05 01:20:04;;;;;;;2.42;2.20;;;;;;;12.55;71.97;102112.22;5076633;28;20025;-88
2023/06/05 01:22:32;;;;;;;2.47;1.95;;;;;;;12.64;71.47;102127.81;5076213;28;20503;-88
2023/06/05 01:25:07;;;;;;;2.47;2.20;;;;;;;12.49;71.01;102102.69;5075856;28;20480;-88
2023/06/05 01:27:48;;;;;;;3.35;2.00;;;;;;;12.59;70.37;102126.94;5076151;28;20032;-87
2023/06/05 01:30:44;;;;;;;2.03;1.80;;;;;;;12.55;70.41;102120.03;5071551;28;20040;-88
2023/06/05 01:33:28;;;;;;;3.05;2.15;;;;;;;12.51;70.94;102121.75;5074242;28;20070;-88
2023/06/05 01:35:55;;;;;;;2.75;2.08;;;;;;;12.50;74.36;102129.56;5076281;28;20024;-88
2023/06/05 01:38:21;;;;;;;2.95;2.38;;;;;;;12.44;72.91;102129.59;5075880;28;20089;-87
2023/06/05 01:40:49;;;;;;;2.30;2.10;;;;;;;12.40;74.99;102123.50;5076118;28;20027;-88
2023/06/05 01:43:15;;;;;;;3.83;2.40;;;;;;;12.35;72.96;102120.06;5076341;28;20492;-88
2023/06/05 01:45:42;;;;;;;2.17;1.97;;;;;;;12.33;73.50;102116.59;5074847;28;20024;-88
2023/06/05 01:48:10;;;;;;;3.30;2.60;;;;;;;12.25;73.69;102106.19;5075899;28;20494;-88
2023/06/05 01:50:37;;;;;;;2.55;2.28;;;;;;;12.19;73.21;102114.03;5075793;28;20012;-87
2023/06/05 01:53:04;;;;;;;2.78;2.10;;;;;;;12.23;72.57;102117.50;5075552;28;20146;-88
2023/06/05 01:55:29;;;;;;;;;;;;;;;12.23;72.67;102109.69;5076059;28;20027;-87
2023/06/05 01:57:54;;;;;;;2.97;2.10;;;;;;;12.16;71.86;102095.81;5075149;28;19912;-88
2023/06/05 02:00:23;;;;;;;3.67;2.70;;;;;;;12.11;73.53;102105.34;5075836;28;20017;-88
2023/06/05 02:02:49;;;;;;;5.10;2.78;;;;;;;12.07;77.59;102106.25;5074932;28;20027;-87
2023/06/05 02:05:17;;;;;;;3.45;2.50;;;;;;;12.03;73.26;102094.97;5075064;28;20040;-87
2023/06/05 02:07:53;;;;;;;4.45;2.88;;;;;;;12.01;75.74;102107.97;5075043;28;20028;-87
2023/06/05 02:10:19;;;;;;;5.50;3.22;;;;;;;11.95;76.86;102091.47;5075516;28;20028;-88
2023/06/05 02:12:45;;;;;;;4.07;3.00;;;;;;;11.86;75.42;102102.75;5075019;28;20020;-88
2023/06/05 02:15:14;;;;;;;2.67;2.47;;;;;;;11.85;75.20;102096.66;5075518;28;20028;-88
2023/06/05 02:17:50;;;;;;;2.45;2.25;;;;;;;11.85;72.88;102096.66;5075674;28;20032;-90
2023/06/05 02:20:16;;;;;;;2.45;2.20;;;;;;;11.84;77.68;102094.94;5075741;28;20028;-88
2023/06/05 02:22:41;;;;;;;2.90;2.60;;;;;;;11.82;73.64;102096.66;5075299;28;20031;-88
2023/06/05 02:25:08;;;;;;;6.87;3.10;;;;;;;11.77;75.32;102095.81;5075581;28;20021;-88
2023/06/05 02:27:33;;;;;;;;;;;;;;;11.73;75.63;102107.97;5075604;28;20023;-88
2023/06/05 02:29:59;;;;;;;3.40;2.47;;;;;;;11.66;75.13;102094.94;5075211;28;19916;-89
2023/06/05 02:32:26;;;;;;;2.93;2.43;;;;;;;11.64;78.03;102087.16;5075533;28;20025;-90
2023/06/05 02:34:51;;;;;;;;;;;;;;;11.59;76.27;102087.16;5075110;28;20055;-89
2023/06/05 02:37:17;;;;;;;4.43;2.70;;;;;;;11.52;78.97;102087.16;5075393;28;19960;-88
2023/06/05 02:39:42;;;;;;;3.97;2.60;;;;;;;11.52;76.28;102097.56;5074835;28;20028;-89
2023/06/05 02:42:08;;;;;;;2.30;2.10;;;;;;;11.47;75.96;102081.94;5074428;28;20032;-87
2023/06/05 02:44:33;;;;;;;2.37;2.17;;;;;;;11.50;74.40;102081.94;5075025;28;20091;-88
2023/06/05 02:46:59;;;;;;;4.03;2.70;;;;;;;11.51;76.98;102088.00;5074671;28;20021;-88
2023/06/05 02:49:24;;;;;;;2.57;2.33;;;;;;;11.46;75.64;102085.41;5074556;28;20549;-89
2023/06/05 02:51:49;;;;;;;3.47;2.70;;;;;;;11.45;76.43;102088.88;5074630;28;20035;-88
2023/06/05 02:54:15;;;;;;;3.77;2.87;;;;;;;11.41;78.59;102077.63;5074589;28;20024;-88
2023/06/05 02:56:40;;;;;;;4.23;3.00;;;;;;;11.37;76.85;102075.88;5074206;28;20365;-88
2023/06/05 02:59:05;;;;;;;4.17;2.77;;;;;;;11.38;75.80;102084.50;5074180;28;20492;-88
2023/06/05 03:01:34;;;;;;;2.83;2.40;;;;;;;11.36;77.90;102076.72;5074513;28;20028;-89
2023/06/05 03:04:02;;;;;;;3.97;2.80;;;;;;;11.30;75.29;102081.03;5075028;28;20040;-89
2023/06/05 03:06:33;;;;;;;4.00;2.88;;;;;;;11.31;79.47;102087.97;5074638;28;20025;-89
2023/06/05 03:08:59;;;;;;;6.25;3.20;;;;;;;11.22;78.05;102081.91;5074529;28;20028;-88
2023/06/05 03:11:25;;;;;;;5.83;3.60;;;;;;;11.13;79.18;102077.56;5066693;28;20388;-89
2023/06/05 03:13:51;;;;;;;5.83;3.37;;;;;;;11.12;76.53;102086.22;5074176;28;20035;-88
2023/06/05 03:16:17;;;;;;;4.13;2.80;;;;;;;11.13;77.02;102079.31;5074253;28;20024;-89
2023/06/05 03:18:43;;;;;;;6.18;3.33;;;;;;;11.09;78.67;102080.16;5074310;28;20031;-88
2023/06/05 03:21:10;;;;;;;4.53;3.10;;;;;;;11.06;81.42;102086.22;5074531;28;20025;-90
2023/06/05 03:23:35;;;;;;;5.30;3.40;;;;;;;11.01;79.57;102084.47;5074269;28;20028;-89
2023/06/05 03:26:06;;;;;;;3.40;2.90;;;;;;;10.98;78.53;102080.09;5073632;28;20036;-89
2023/06/05 03:28:33;;;;;;;3.70;2.38;;;;;;;11.01;78.00;102082.72;5073870;28;20045;-88
2023/06/05 03:30:59;;;;;;;3.40;2.70;;;;;;;10.95;79.17;102067.97;5074332;28;20052;-89
2023/06/05 03:33:26;;;;;;;2.92;2.55;;;;;;;11.00;77.79;102073.19;5073927;28;20082;-89
2023/06/05 03:35:52;;;;;;;3.45;2.38;;;;;;;10.96;77.92;102066.28;5073985;28;20021;-89
2023/06/05 03:38:18;;;;;;;3.80;2.53;;;;;;;10.99;79.60;102068.00;5073504;28;20031;-89
2023/06/05 03:40:43;;;;;;;4.53;2.60;;;;;;;10.99;79.25;102065.41;5072696;28;20037;-87
2023/06/05 03:43:09;;;;;;;2.63;2.20;;;;;;;10.96;78.22;102067.13;5073989;28;20103;-87
2023/06/05 03:45:35;;;;;;;2.70;2.30;;;;;;;10.96;76.62;102061.94;5072060;28;20483;-88
2023/06/05 03:48:20;;;;;;;;;;;;;;;11.00;77.86;102059.34;5074464;28;20020;-89
2023/06/05 03:50:46;;;;;;;2.97;2.28;;;;;;;10.97;76.63;102063.66;5073472;28;19935;-88
2023/06/05 03:53:13;;;;;;;2.40;2.20;;;;;;;11.03;76.29;102070.59;5073830;28;20025;-87
2023/06/05 03:55:45;;;;;;;2.40;2.20;;;;;;;10.96;80.02;102051.53;5074280;28;20020;-89
2023/06/05 03:58:26;;;;;;;3.03;2.35;;;;;;;10.93;77.06;102056.72;5074078;28;20027;-88
2023/06/05 04:00:53;;;;;;;6.13;3.72;;;;;;;10.86;79.87;102054.97;5073491;28;20032;-87
2023/06/05 04:03:20;;;;;;;9.10;4.78;;;;;;;10.86;83.56;102065.38;5073922;28;20020;-89
2023/06/05 04:05:45;;;;;;;7.15;4.00;;;;;;;10.70;80.11;102050.56;5073393;28;20116;-89
2023/06/05 04:08:24;;;;;;;7.83;4.20;;;;;;;10.77;82.87;102062.75;5073167;28;20481;-89
2023/06/05 04:10:50;;;;;;;5.88;3.80;;;;;;;10.75;82.32;102062.72;5073644;28;20033;-89
2023/06/05 04:13:15;;;;;;;6.27;3.70;;;;;;;10.72;80.47;102051.44;5075163;28;20029;-88
2023/06/05 04:15:40;;;;;;;3.97;2.80;;;;;;;10.73;78.11;102051.47;5073794;28;20465;-87
2023/06/05 04:18:07;;;;;;;4.40;3.10;;;;;;;10.85;81.52;102057.56;5074897;28;20028;-88
2023/06/05 04:20:32;;;;;;;;;;;;;;;10.91;81.00;102071.44;5077517;28;20531;-90
2023/06/05 04:22:58;;;;;;;4.20;3.00;;;;;;;10.93;80.50;102068.84;5073591;28;19947;-91
2023/06/05 04:25:23;;;;;;;4.27;2.93;;;;;;;11.00;79.57;102077.53;5073515;28;20517;-86
2023/06/05 04:27:51;;;;;;;5.77;3.33;;;;;;;10.99;79.73;102076.66;5072730;28;20400;-90
2023/06/05 04:30:16;;;;;;;5.40;3.40;;;;;;;11.00;81.17;102083.56;5073173;28;20032;-87
2023/06/05 04:32:42;;;;;;;6.33;3.40;;;;;;;10.98;80.76;102082.69;5072987;28;20104;-88
2023/06/05 04:35:08;;;;;;;6.53;4.03;;;;;;;10.95;82.93;102088.75;5071105;28;20032;-84
2023/06/05 04:37:37;;;;;;;6.15;3.40;;;;;;;10.97;79.98;102075.78;5062593;28;20187;-83
2023/06/05 04:40:09;;;;;;;6.15;3.92;;;;;;;11.02;80.70;102087.06;5052412;28;20397;-90
2023/06/05 04:42:36;;;;;;;4.57;3.25;;;;;;;11.07;80.46;102081.88;5073070;28;20036;-90
2023/06/05 04:45:04;;;;;;;6.35;3.45;;;;;;;11.15;79.14;102080.16;5073738;28;20029;-90
2023/06/05 04:47:31;;;;;;;7.50;4.03;;;;;;;11.18;81.54;102084.50;5073460;28;20031;-90
2023/06/05 04:49:59;;;;;;;5.55;3.40;;;;;;;11.20;80.56;102086.22;5074098;28;20461;-89
2023/06/05 04:52:26;;;;;;;7.35;4.05;;;;;;;11.22;78.92;102081.91;5073740;28;20021;-90
2023/06/05 04:54:51;;;;;;;;;;;;;;;11.24;79.83;102087.09;5073780;28;20028;-89
2023/06/05 04:57:18;;;;;;;8.47;4.97;;;;;;;11.21;82.46;102087.09;5072951;28;20058;-90
2023/06/05 04:59:43;;;;;;;9.20;4.75;;;;;;;11.22;81.45;102083.63;5073326;28;20063;-91
2023/06/05 05:02:09;;;;;;;6.43;4.17;;;;;;;11.26;82.30;102093.16;5073564;28;20117;-90
2023/06/05 05:04:34;;;;;;;9.10;5.10;;;;;;;11.27;82.76;102093.16;5072890;28;20029;-90
2023/06/05 05:07:02;;;;;;;7.20;4.37;;;;;;;11.26;82.82;102087.97;5053797;28;20021;-89
2023/06/05 05:09:28;;;;;;;7.55;4.30;;;;;;;11.32;81.01;102087.97;5053269;28;20105;-89
2023/06/05 05:11:53;;;;;;;10.17;5.17;;;;;;;11.38;83.38;102094.91;5052689;28;20045;-89
2023/06/05 05:14:19;;;;;;;13.00;6.10;;;;;;;11.37;82.15;102091.47;5053171;28;20371;-90
2023/06/05 05:16:44;;;;;;;10.57;5.20;;;;;;;11.37;80.80;102088.84;5052816;28;20028;-90
2023/06/05 05:19:10;;;;;;;10.20;5.50;;;;;;;11.44;83.77;102088.00;5053083;28;20033;-89
2023/06/05 05:21:36;;;;;;;9.33;5.17;;;;;;;11.49;83.23;102079.34;5056791;28;20116;-90
2023/06/05 05:24:01;;;;;;;11.73;6.00;;;;;;;11.51;82.15;102085.41;5056106;28;20074;-86
2023/06/05 05:26:27;;;;;;;9.63;5.00;;;;;;;11.55;82.57;102081.94;5056853;28;20033;-85
2023/06/05 05:28:52;;;;;;;8.67;4.80;;;;;;;11.62;80.68;102086.28;5060506;28;20041;-88
2023/06/05 05:31:17;;;;;;;12.63;6.40;;;;;;;11.61;82.65;102083.66;5075601;28;20029;-91
2023/06/05 05:33:43;;;;;;;12.07;6.63;;;;;;;11.56;82.80;102084.56;5074839;28;20127;-86
2023/06/05 05:36:08;;;;;;;12.23;5.90;;;;;;;11.57;81.67;102080.19;5074436;28;20505;-87
2023/06/05 05:38:34;;;;;;;11.17;5.40;;;;;;;11.64;82.49;102096.69;5075088;28;20056;-86
2023/06/05 05:40:59;;;;;;;12.83;6.23;;;;;;;11.65;82.97;102083.66;5076179;28;20032;-84
2023/06/05 05:43:25;;;;;;;13.20;6.10;;;;;;;11.66;81.83;102087.16;5073827;28;20029;-89
2023/06/05 05:45:50;;;;;;;11.82;5.90;;;;;;;11.71;82.37;102093.19;5066322;28;20216;-86
2023/06/05 05:48:20;;;;;;;11.23;6.03;;;;;;;11.73;81.82;102075.88;5071771;28;20539;-85
2023/06/05 05:50:47;;;;;;;14.07;6.45;;;;;;;11.83;82.13;102093.19;5054039;28;20102;-85
2023/06/05 05:53:12;;;;;;;;;;;;;;;11.87;80.46;102087.13;5055381;28;20112;-85
2023/06/05 05:55:38;;;;;;;13.33;6.23;;;;;;;11.90;81.52;102086.25;5055272;28;19949;-86
2023/06/05 05:58:03;;;;;;;12.10;6.03;;;;;;;11.97;81.33;102098.41;5053867;28;20021;-86
2023/06/05 06:00:28;;;;;;;10.70;5.70;;;;;;;11.99;80.12;102091.47;5058317;28;20024;-87
2023/06/05 06:02:54;;;;;;;10.97;5.23;;;;;;;12.16;78.63;102098.41;5073287;28;20079;-86
2023/06/05 06:05:20;;;;;;;10.80;5.37;;;;;;;12.36;78.53;102099.22;5073855;28;20531;-85
2023/06/05 06:07:46;;;;;;;9.23;5.07;;;;;;;12.79;78.41;102100.81;5074769;28;20025;-85
2023/06/05 06:10:12;;;;;;;14.73;6.93;;;;;;;13.80;74.62;102102.78;5075040;28;20428;-86
2023/06/05 06:12:37;;;;;;;12.48;6.43;;;;;;;15.11;74.38;102103.09;5073775;28;20024;-86
2023/06/05 06:15:04;;;;;;;10.80;5.80;;;;;;;16.26;68.87;102105.63;5074701;28;20031;-86
2023/06/05 06:17:29;;;;;;;16.17;8.02;;;;;;;16.40;65.12;102116.72;5074794;28;20028;-85
2023/06/05 06:19:55;;;;;;;12.80;6.30;;;;;;;16.12;67.67;102109.34;5073638;28;20025;-86
2023/06/05 06:22:20;;;;;;;14.73;6.67;;;;;;;15.73;65.59;102115.22;5075154;28;20028;-86
2023/06/05 06:24:46;;;;;;;11.53;6.30;;;;;;;15.49;66.48;102113.88;5056087;28;20025;-83
2023/06/05 06:27:12;;;;;;;13.93;7.00;;;;;;;15.29;67.10;102109.84;5054234;28;20103;-82
2023/06/05 06:29:47;;;;;;;12.48;6.38;;;;;;;15.40;66.89;102114.03;5053781;28;20099;-82
2023/06/05 06:32:12;;;;;;;11.90;6.18;;;;;;;15.49;67.73;102099.91;5052895;28;20025;-82
2023/06/05 06:34:38;;;;;;;7.73;5.07;;;;;;;15.85;67.47;102105.47;5054050;28;20047;-82
2023/06/05 06:37:04;;;;;;;9.40;5.17;;;;;;;16.11;66.13;102112.00;5054397;28;20500;-82
2023/06/05 06:39:29;;;;;;;9.30;5.33;;;;;;;16.25;66.21;102110.00;5053485;28;20025;-83
2023/06/05 06:41:55;;;;;;;8.00;4.40;;;;;;;16.40;65.56;102103.59;5054227;28;20096;-83
2023/06/05 06:44:21;;;;;;;;;;;;;;;16.59;65.74;102108.47;5062855;28;20025;-83
2023/06/05 06:46:46;;;;;;;5.88;3.95;;;;;;;16.68;65.25;102101.28;5072983;28;19918;-82
2023/06/05 06:49:12;;;;;;;10.97;6.13;;;;;;;16.70;63.38;102110.88;5060601;28;20037;-87
2023/06/05 06:51:37;;;;;;;10.50;5.20;;;;;;;16.58;63.23;102112.88;5054578;28;20017;-89
2023/06/05 06:54:02;;;;;;;9.33;5.13;;;;;;;16.61;63.00;102117.16;5054467;28;20075;-91
2023/06/05 06:56:28;;;;;;;7.80;4.97;;;;;;;16.56;64.00;102113.75;5055095;28;20024;-90
2023/06/05 06:58:53;;;;;;;7.03;4.10;;;;;;;16.80;62.63;102122.91;5054622;28;20031;-91
2023/06/05 07:01:19;;;;;;;10.20;5.37;;;;;;;16.88;62.22;102120.97;5054029;28;20381;-90
2023/06/05 07:03:45;;;;;;;10.68;5.53;;;;;;;16.87;62.04;102119.25;5054646;28;20033;-89
2023/06/05 07:06:11;;;;;;;8.10;4.83;;;;;;;16.79;63.04;102122.03;5054870;28;20024;-93
2023/06/05 07:08:37;;;;;;;10.02;5.57;;;;;;;16.74;62.52;102120.38;5053535;28;20033;-91
2023/06/05 07:11:02;;;;;;;9.10;4.80;;;;;;;16.87;62.55;102134.13;5054748;28;20112;-90
2023/06/05 07:13:27;;;;;;;6.10;4.10;;;;;;;17.04;61.48;102129.41;5054436;28;20021;-92
2023/06/05 07:15:53;;;;;;;7.83;4.90;;;;;;;17.11;61.67;102135.38;5053349;28;20147;-90
2023/06/05 07:18:19;;;;;;;10.77;5.73;;;;;;;17.05;60.62;102132.91;5054491;28;20032;-88
2023/06/05 07:20:45;;;;;;;6.75;4.30;;;;;;;16.97;61.30;102140.94;5055134;28;20040;-91
2023/06/05 07:23:10;;;;;;;10.67;5.20;;;;;;;17.00;59.84;102135.59;5053711;28;20029;-90
2023/06/05 07:25:37;;;;;;;11.97;6.20;;;;;;;16.81;61.64;102135.13;5054340;28;20036;-89
2023/06/05 07:28:12;;;;;;;13.20;6.45;;;;;;;16.54;62.02;102131.31;5054495;28;20033;-90
2023/06/05 07:30:38;;;;;;;10.35;5.32;;;;;;;16.59;61.42;102134.69;5053206;28;20028;-91
2023/06/05 07:33:03;;;;;;;15.00;8.00;;;;;;;15.66;62.62;102131.06;5054388;28;20385;-90
2023/06/05 07:35:29;;;;;;;16.43;8.00;;;;;;;15.62;63.11;102135.47;5053984;28;20029;-91
2023/06/05 07:37:55;;;;;;;15.33;6.90;;;;;;;15.65;63.85;102139.81;5054193;28;20108;-90
2023/06/05 07:40:20;;;;;;;10.07;5.27;;;;;;;15.90;63.46;102135.06;5054000;28;20342;-92
2023/06/05 07:42:46;;;;;;;8.87;4.80;;;;;;;16.28;62.61;102135.28;5053255;28;20021;-90
2023/06/05 07:45:11;;;;;;;11.67;5.67;;;;;;;16.44;61.89;102127.97;5054176;28;20033;-91
2023/06/05 07:47:36;;;;;;;10.00;5.27;;;;;;;16.51;62.11;102135.69;5053644;28;20074;-92
2023/06/05 07:50:06;;;;;;;10.23;5.63;;;;;;;16.70;61.54;102137.09;5053595;28;20045;-93
2023/06/05 07:52:32;;;;;;;9.15;5.20;;;;;;;16.87;61.23;102134.13;5053873;28;20108;-91
2023/06/05 07:54:58;;;;;;;6.43;4.10;;;;;;;17.06;61.30;102132.84;5053692;28;20405;-91
2023/06/05 07:57:24;;;;;;;8.87;4.70;;;;;;;17.31;60.08;102136.69;5053269;28;20036;-91
2023/06/05 07:59:50;;;;;;;7.13;3.80;;;;;;;17.49;60.93;102130.13;5053486;28;20401;-92
2023/06/05 08:02:16;;;;;;;6.50;4.00;;;;;;;17.73;59.42;102126.91;5053755;28;20025;-92
2023/06/05 08:04:42;;;;;;;5.78;3.90;;;;;;;17.80;58.20;102130.25;5053248;28;20492;-91
2023/06/05 08:07:07;;;;;;;5.93;3.50;;;;;;;17.87;58.90;102126.56;5053643;28;20021;-91
2023/06/05 08:09:33;;;;;;;8.23;4.43;;;;;;;17.87;58.26;102131.81;5053648;28;20025;-90
2023/06/05 08:11:59;;;;;;;8.70;4.15;;;;;;;17.90;57.76;102123.03;5052993;28;20021;-91
2023/06/05 08:14:24;;;;;;;11.23;6.00;;;;;;;17.71;57.37;102120.84;5069073;28;20472;-91
2023/06/05 08:16:50;;;;;;;7.50;4.70;;;;;;;17.81;57.47;102124.09;5073595;28;20028;-91
2023/06/05 08:19:15;;;;;;;7.23;4.13;;;;;;;17.97;56.59;102119.34;5073162;28;20025;-90
2023/06/05 08:21:40;;;;;;;11.97;5.30;;;;;;;17.97;56.94;102111.47;5073248;28;20500;-92
2023/06/05 08:24:06;;;;;;;13.03;5.80;;;;;;;17.87;56.55;102112.59;5074109;28;20021;-91
2023/06/05 08:26:31;;;;;;;10.97;5.10;;;;;;;17.91;56.91;102115.09;5072945;28;20465;-92
2023/06/05 08:28:57;;;;;;;6.90;4.10;;;;;;;18.06;57.76;102118.25;5073858;28;20051;-92
2023/06/05 08:31:23;;;;;;;7.13;4.30;;;;;;;18.20;56.09;102112.63;5073612;28;20048;-92
2023/06/05 08:33:49;;;;;;;;;;;;;;;18.28;56.68;102105.38;5073288;28;20384;-94
2023/06/05 08:36:14;;;;;;;8.20;4.60;;;;;;;18.39;56.74;102104.22;5073993;28;19916;-92
2023/06/05 08:38:39;;;;;;;12.47;6.23;;;;;;;18.20;55.40;102100.34;5063271;28;20436;-92
2023/06/05 08:41:15;;;;;;;11.67;5.50;;;;;;;18.33;56.30;102108.75;5054190;28;20048;-92
2023/06/05 08:43:42;;;;;;;8.82;5.15;;;;;;;18.40;55.95;102100.69;5053229;28;20025;-93
2023/06/05 08:46:09;;;;;;;8.77;4.82;;;;;;;18.41;55.97;102105.88;5053297;28;20025;-92
2023/06/05 08:48:40;;;;;;;10.98;5.25;;;;;;;18.53;55.31;102099.44;5053579;28;20033;-92
2023/06/05 08:51:09;;;;;;;8.48;4.60;;;;;;;18.67;55.66;102096.41;5055636;28;20025;-91
2023/06/05 08:53:35;;;;;;;10.45;5.25;;;;;;;18.78;52.68;102106.63;5055086;28;20041;-91
2023/06/05 08:56:01;;;;;;;7.22;4.40;;;;;;;18.90;55.31;102100.13;5058009;28;20499;-94
2023/06/05 08:58:27;;;;;;;6.35;3.78;;;;;;;19.13;54.95;102095.03;5058030;28;20036;-94
2023/06/05 09:00:53;;;;;;;6.28;3.63;;;;;;;19.29;54.22;102105.94;5059214;28;20462;-94
2023/06/05 09:03:19;;;;;;;4.73;3.40;;;;;;;19.40;53.92;102094.19;5059776;28;20017;-93
2023/06/05 09:05:46;;;;;;;8.05;4.07;;;;;;;19.50;53.25;102100.03;5057210;28;20444;-94
2023/06/05 09:08:11;;;;;;;7.03;3.85;;;;;;;19.60;53.25;102097.03;5056501;28;20059;-93
2023/06/05 09:10:37;;;;;;;11.55;5.30;;;;;;;19.57;51.58;102093.63;5056687;28;20053;-93
2023/06/05 09:13:03;;;;;;;11.17;5.10;;;;;;;19.45;51.75;102100.19;5056710;28;20048;-91
2023/06/05 09:15:33;;;;;;;;;;;;;;;19.20;53.10;102100.97;5056275;28;20527;-93
2023/06/05 09:18:03;;;;;;;7.70;4.00;;;;;;;19.37;53.38;102092.53;5056999;28;19913;-93
2023/06/05 09:20:31;;;;;;;7.82;4.22;;;;;;;19.60;52.59;102089.13;5057072;28;20037;-92
2023/06/05 09:22:57;;;;;;;6.93;4.13;;;;;;;19.81;52.58;102080.56;5056112;28;20032;-93
2023/06/05 09:25:22;;;;;;;8.83;4.00;;;;;;;19.96;51.51;102084.47;5056811;28;20408;-94
2023/06/05 09:28:06;;;;;;;5.80;3.37;;;;;;;20.10;52.19;102081.34;5056317;28;20294;-93
2023/06/05 09:30:31;;;;;;;7.10;3.80;;;;;;;20.28;51.52;102083.31;5056466;28;20025;-91
2023/06/05 09:33:08;;;;;;;11.83;5.67;;;;;;;20.20;50.95;102090.66;5056749;28;20048;-93
2023/06/05 09:35:33;;;;;;;7.93;4.40;;;;;;;20.16;51.02;102081.97;5056259;28;20025;-92
2023/06/05 09:37:58;;;;;;;4.30;2.87;;;;;;;20.38;51.63;102083.81;5056189;22;20053;-87
2023/06/05 09:40:40;;;;;;;9.90;4.97;;;;;;;20.51;50.20;102076.31;5036618;28;20041;-92
2023/06/05 09:43:22;;;;;;;7.47;4.20;;;;;;;20.62;50.09;102081.19;5035690;28;20106;-90
2023/06/05 09:45:47;;;;;;;6.68;3.38;;;;;;;20.80;51.30;102085.81;5035760;28;20036;-90
2023/06/05 09:48:14;;;;;;;8.80;4.03;;;;;;;21.00;49.51;102081.50;5036272;28;20473;-90
2023/06/05 09:50:40;;;;;;;6.43;3.40;;;;;;;21.10;50.15;102088.13;5035444;28;20025;-90
2023/06/05 09:53:07;;;;;;;8.38;4.30;;;;;;;21.24;49.73;102079.66;5035997;28;20032;-91
2023/06/05 09:55:36;;;;;;;8.43;4.20;;;;;;;21.34;48.28;102076.63;5029404;28;20036;-91
2023/06/05 09:58:10;;;;;;;9.68;4.50;;;;;;;21.43;48.93;102081.56;5035263;28;20024;-91
2023/06/05 10:00:38;;;;;;;4.93;3.40;;;;;;;21.59;49.04;102080.00;5035171;28;20037;-90
2023/06/05 10:03:07;;;;;;;7.90;4.30;;;;;;;21.77;47.74;102074.00;5035301;28;20041;-90
2023/06/05 10:05:36;;;;;;;6.38;3.67;;;;;;;21.83;47.36;102069.31;5035364;28;20091;-89
2023/06/05 10:08:02;;;;;;;7.22;3.70;;;;;;;21.94;48.45;102068.84;5077228;22;20409;-89
2023/06/05 10:10:29;;;;;;;7.80;4.47;;;;;;;21.93;45.55;102067.13;5006906;28;20022;-90
2023/06/05 10:12:56;;;;;;;6.43;3.72;;;;;;;21.94;46.94;102058.28;5030679;28;20112;-91
2023/06/05 10:15:22;;;;;;;6.78;3.50;;;;;;;22.03;47.69;102071.09;5033529;28;20056;-91
2023/06/05 10:17:48;;;;;;;4.72;2.95;;;;;;;22.15;48.09;102059.09;5034175;28;20049;-93
2023/06/05 10:20:16;;;;;;;7.53;3.80;;;;;;;22.31;46.74;102059.25;5031443;28;20088;-92
2023/06/05 10:22:43;;;;;;;8.98;4.65;;;;;;;21.97;45.77;102060.75;5031546;28;20021;-94
2023/06/05 10:25:12;;;;;;;5.85;3.50;;;;;;;22.04;46.55;102062.22;5034912;28;20025;-91
2023/06/05 10:27:47;;;;;;;6.38;3.60;;;;;;;22.13;45.37;102054.81;5034977;28;20018;-94
2023/06/05 10:30:34;;;;;;;9.07;4.50;;;;;;;22.01;46.47;102064.16;5036095;28;20069;-91
2023/06/05 10:33:24;;;;;;;7.15;3.80;;;;;;;22.23;47.59;102058.75;5036146;28;20029;-93
2023/06/05 10:36:04;;;;;;;4.35;2.95;;;;;;;;;;5035940;28;20568;-94
2023/06/05 10:38:37;;;;;;;7.82;4.22;;;;;;;22.51;45.06;102054.88;5035444;28;20044;-92
2023/06/05 10:41:04;;;;;;;5.38;3.25;;;;;;;22.61;46.10;102052.63;5036590;28;20030;-94
2023/06/05 10:43:44;;;;;;;6.63;3.20;;;;;;;22.91;44.75;102057.41;5036445;28;20025;-94
2023/06/05 10:46:30;;;;;;;6.13;2.88;;;;;;;23.08;45.12;102054.78;5036527;28;20030;-94
2023/06/05 10:49:19;;;;;;;;;;;;;;;23.17;45.13;102050.84;5036556;28;20029;-93
2023/06/05 10:51:53;;;;;;;4.13;2.70;;;;;;;23.32;45.25;102051.03;5036166;28;19920;-92
2023/06/05 10:54:21;;;;;;;6.53;3.17;;;;;;;23.48;44.36;102048.44;5036359;28;20079;-92
2023/06/05 10:56:59;;;;;;;5.07;2.83;;;;;;;23.58;44.35;102041.78;5035277;28;20108;-93
2023/06/05 10:59:42;;;;;;;4.43;3.00;;;;;;;23.69;44.71;102042.06;5034973;28;20493;-94
2023/06/05 11:02:17;;;;;;;3.00;2.50;;;;;;;23.90;44.59;102045.38;5035520;28;20072;-94
2023/06/05 11:04:46;;;;;;;6.63;3.50;;;;;;;24.04;42.87;102047.31;5034515;28;20029;-94
2023/06/05 11:07:20;;;;;;;4.40;2.70;;;;;;;24.17;42.33;102036.94;5033773;28;20100;-94
2023/06/05 11:10:04;;;;;;;6.40;3.28;;;;;;;23.99;42.54;102028.16;5035765;28;20412;-94
2023/06/05 11:12:39;;;;;;;6.70;3.28;;;;;;;24.03;42.41;102029.72;5036280;28;20495;-96
2023/06/05 11:15:06;;;;;;;4.75;2.70;;;;;;;24.21;43.21;102032.31;5036179;28;20036;-95
2023/06/05 11:17:32;;;;;;;2.55;2.20;;;;;;;24.41;42.36;102033.00;5036923;28;20030;-95
2023/06/05 11:19:59;;;;;;;3.83;2.70;;;;;;;24.47;42.58;102028.22;5036716;28;20112;-83
2023/06/05 11:22:26;;;;;;;3.38;2.60;;;;;;;24.64;42.61;102021.13;5033313;28;20025;-89
2023/06/05 11:25:24;;;;;;;6.80;3.30;;;;;;;24.58;40.77;102027.63;5033525;28;20029;-89
2023/06/05 11:28:01;;;;;;;4.25;2.67;;;;;;;24.61;41.58;102027.44;5021888;28;20095;-89
2023/06/05 11:30:32;;;;;;;2.85;2.30;;;;;;;24.75;40.41;102020.53;5014064;28;20087;-89